createdAt,value
2017-07-29T00:00:16.050Z,1.98
2017-07-29T00:02:44.139Z,2.40
2017-07-29T00:05:12.235Z,2.90
2017-07-29T00:07:41.086Z,3.10
2017-07-29T00:10:09.546Z,2.17
2017-07-29T00:12:37.674Z,2.60
2017-07-29T00:15:05.770Z,3.00
2017-07-29T00:17:33.855Z,3.10
2017-07-29T00:20:01.967Z,3.22
2017-07-29T00:22:30.038Z,2.47
2017-07-29T00:24:58.927Z,2.78
2017-07-29T00:27:26.994Z,1.85
2017-07-29T00:29:55.081Z,2.55
2017-07-29T00:32:23.950Z,2.35
2017-07-29T00:34:52.071Z,2.40
2017-07-29T00:37:20.534Z,2.05
2017-07-29T00:39:49.052Z,2.85
2017-07-29T00:42:17.532Z,2.78
2017-07-29T00:44:45.602Z,2.90
2017-07-29T00:47:13.697Z,2.85
2017-07-29T00:49:41.780Z,2.17
2017-07-29T00:52:09.863Z,2.30
2017-07-29T00:54:37.982Z,2.35
2017-07-29T00:57:06.472Z,1.83
2017-07-29T00:59:34.578Z,2.65
2017-07-29T01:02:02.695Z,2.50
2017-07-29T01:04:30.766Z,2.40
2017-07-29T01:06:58.850Z,2.72
2017-07-29T01:09:26.976Z,2.95
2017-07-29T01:11:55.042Z,2.45
2017-07-29T01:14:23.128Z,2.30
2017-07-29T01:16:51.251Z,2.53
2017-07-29T01:19:19.727Z,2.15
2017-07-29T01:21:47.826Z,2.47
2017-07-29T01:24:15.915Z,2.70
2017-07-29T01:26:45.515Z,2.40
2017-07-29T01:29:13.989Z,3.10
2017-07-29T01:31:42.874Z,3.10
2017-07-29T01:34:10.951Z,2.45
2017-07-29T01:36:39.055Z,2.10
2017-07-29T01:39:07.525Z,2.65
2017-07-29T01:41:35.990Z,3.15
2017-07-29T01:44:04.094Z,2.58
2017-07-29T01:46:32.949Z,2.30
2017-07-29T01:49:01.082Z,2.75
2017-07-29T01:51:29.170Z,2.20
2017-07-29T01:53:57.243Z,2.20
2017-07-29T01:56:26.480Z,2.53
2017-07-29T01:58:54.974Z,2.80
2017-07-29T02:01:23.731Z,2.30
2017-07-29T02:03:51.819Z,2.58
2017-07-29T02:06:19.914Z,1.90
2017-07-29T02:08:48.014Z,2.28
2017-07-29T02:11:16.090Z,3.00
2017-07-29T02:13:44.166Z,3.00
2017-07-29T02:16:12.319Z,2.20
2017-07-29T02:18:40.786Z,3.10
2017-07-29T02:21:09.630Z,3.60
2017-07-29T02:23:37.734Z,2.33
2017-07-29T02:26:05.838Z,2.90
2017-07-29T02:28:35.023Z,2.62
2017-07-29T02:31:03.131Z,3.10
2017-07-29T02:33:31.202Z,2.45
2017-07-29T02:35:59.286Z,2.15
2017-07-29T02:38:28.591Z,2.85
2017-07-29T02:40:57.390Z,2.75
2017-07-29T02:43:25.462Z,2.47
2017-07-29T02:45:53.633Z,2.78
2017-07-29T02:48:21.817Z,2.75
2017-07-29T02:50:49.940Z,2.15
2017-07-29T02:53:18.414Z,3.05
2017-07-29T02:55:47.261Z,2.97
2017-07-29T02:58:15.767Z,3.15
2017-07-29T03:00:43.846Z,3.22
2017-07-29T03:03:15.600Z,2.55
2017-07-29T03:05:44.881Z,2.78
2017-07-29T03:08:12.953Z,2.75
2017-07-29T03:10:41.038Z,2.53
2017-07-29T03:13:12.889Z,2.70
2017-07-29T03:15:41.799Z,2.95
2017-07-29T03:18:09.943Z,2.65
2017-07-29T03:20:37.983Z,2.70
2017-07-29T03:23:06.893Z,2.70
2017-07-29T03:25:34.970Z,2.40
2017-07-29T03:28:03.478Z,3.05
2017-07-29T03:30:31.550Z,2.87
2017-07-29T03:32:59.621Z,2.72
2017-07-29T03:35:27.719Z,2.75
2017-07-29T03:37:56.570Z,3.17
2017-07-29T03:40:26.585Z,3.10
2017-07-29T03:42:55.098Z,3.12
2017-07-29T03:45:24.054Z,2.37
2017-07-29T03:47:52.230Z,2.50
2017-07-29T03:50:20.822Z,2.67
2017-07-29T03:52:48.885Z,3.00
2017-07-29T03:55:16.991Z,3.50
2017-07-29T03:57:45.089Z,2.40
2017-07-29T04:00:13.202Z,2.65
2017-07-29T04:02:41.350Z,2.55
2017-07-29T04:05:10.310Z,2.20
2017-07-29T04:07:38.365Z,2.60
2017-07-29T04:10:07.738Z,2.35
2017-07-29T04:12:35.841Z,3.10
2017-07-29T04:15:03.991Z,3.08
2017-07-29T04:17:32.462Z,2.65
2017-07-29T04:20:00.650Z,3.35
2017-07-29T04:22:28.818Z,2.53
2017-07-29T04:24:56.907Z,2.72
2017-07-29T04:27:25.069Z,3.15
2017-07-29T04:29:53.158Z,2.72
2017-07-29T04:32:21.246Z,2.22
2017-07-29T04:34:49.741Z,2.92
2017-07-29T04:37:17.918Z,2.53
2017-07-29T04:39:46.228Z,2.53
2017-07-29T04:42:15.085Z,2.60
2017-07-29T04:44:43.218Z,3.15
2017-07-29T04:47:11.729Z,3.45
2017-07-29T04:49:40.682Z,3.10
2017-07-29T04:52:08.864Z,2.25
2017-07-29T04:54:37.433Z,2.45
2017-07-29T04:57:05.930Z,3.20
2017-07-29T04:59:34.425Z,2.92
2017-07-29T05:02:02.493Z,2.22
2017-07-29T05:04:30.979Z,2.67
2017-07-29T05:06:59.115Z,2.70
2017-07-29T05:09:27.186Z,3.05
2017-07-29T05:11:55.266Z,2.83
2017-07-29T05:14:23.370Z,2.92
2017-07-29T05:16:52.213Z,3.17
2017-07-29T05:19:20.741Z,2.85
2017-07-29T05:21:48.809Z,3.62
2017-07-29T05:24:17.669Z,2.87
2017-07-29T05:26:45.862Z,2.55
2017-07-29T05:29:13.942Z,3.12
2017-07-29T05:31:42.025Z,2.90
2017-07-29T05:34:10.146Z,2.62
2017-07-29T05:36:38.968Z,3.25
2017-07-29T05:39:07.050Z,3.00
2017-07-29T05:41:35.149Z,3.15
2017-07-29T05:44:04.102Z,3.47
2017-07-29T05:46:32.303Z,3.12
2017-07-29T05:49:05.894Z,2.72
2017-07-29T05:51:34.050Z,2.87
2017-07-29T05:54:02.518Z,3.12
2017-07-29T05:56:31.021Z,2.72
2017-07-29T05:58:59.489Z,2.62
2017-07-29T06:01:28.513Z,3.58
2017-07-29T06:03:57.070Z,3.25
2017-07-29T06:06:25.542Z,2.80
2017-07-29T06:08:53.748Z,3.20
2017-07-29T06:11:21.797Z,2.45
2017-07-29T06:13:49.978Z,2.50
2017-07-29T06:16:18.145Z,2.62
2017-07-29T06:18:46.647Z,2.97
2017-07-29T06:21:14.766Z,2.70
2017-07-29T06:23:42.842Z,2.62
2017-07-29T06:26:10.919Z,2.60
2017-07-29T06:28:39.022Z,4.75
2017-07-29T06:31:07.104Z,3.28
2017-07-29T06:33:35.198Z,3.25
2017-07-29T06:36:03.275Z,3.05
2017-07-29T06:38:32.110Z,3.03
2017-07-29T06:41:00.229Z,3.22
2017-07-29T06:43:29.070Z,3.60
2017-07-29T06:45:57.142Z,2.65
2017-07-29T06:48:25.968Z,3.60
2017-07-29T06:50:54.034Z,3.08
2017-07-29T06:53:22.121Z,2.25
2017-07-29T06:55:50.198Z,3.20
2017-07-29T06:58:19.063Z,3.22
2017-07-29T07:00:47.154Z,3.45
2017-07-29T07:03:17.791Z,4.65
2017-07-29T07:05:47.065Z,3.30
2017-07-29T07:08:15.225Z,2.65
2017-07-29T07:10:43.426Z,3.50
2017-07-29T07:13:11.985Z,2.83
2017-07-29T07:15:40.168Z,3.42
2017-07-29T07:18:08.249Z,3.20
2017-07-29T07:20:36.345Z,2.95
2017-07-29T07:23:05.214Z,3.10
2017-07-29T07:25:33.786Z,2.87
2017-07-29T07:28:01.870Z,2.65
2017-07-29T07:30:29.945Z,3.50
2017-07-29T07:33:00.070Z,3.20
2017-07-29T07:35:28.238Z,2.60
2017-07-29T07:37:56.394Z,2.87
2017-07-29T07:40:24.499Z,3.42
2017-07-29T07:42:52.641Z,2.85
2017-07-29T07:45:20.718Z,3.12
2017-07-29T07:47:48.822Z,3.10
2017-07-29T07:50:17.671Z,3.03
2017-07-29T07:52:45.742Z,3.20
2017-07-29T07:55:13.871Z,2.35
2017-07-29T07:57:42.006Z,2.80
2017-07-29T08:00:10.908Z,2.37
2017-07-29T08:02:40.763Z,2.90
2017-07-29T08:05:08.935Z,2.75
2017-07-29T08:07:39.073Z,3.15
2017-07-29T08:10:07.229Z,2.47
2017-07-29T08:12:35.428Z,2.22
2017-07-29T08:15:03.505Z,2.85
2017-07-29T08:17:32.373Z,2.50
2017-07-29T08:20:00.550Z,2.70
2017-07-29T08:22:28.617Z,2.50
2017-07-29T08:24:56.705Z,2.50
2017-07-29T08:27:24.863Z,2.28
2017-07-29T08:29:53.033Z,2.80
2017-07-29T08:32:21.136Z,2.50
2017-07-29T08:34:49.663Z,2.80
2017-07-29T08:37:17.813Z,2.90
2017-07-29T08:39:47.149Z,2.53
2017-07-29T08:42:15.750Z,2.83
2017-07-29T08:44:43.829Z,2.67
2017-07-29T08:47:12.403Z,3.00
2017-07-29T08:49:40.547Z,2.10
2017-07-29T08:52:08.678Z,2.75
2017-07-29T08:54:36.771Z,2.20
2017-07-29T08:57:05.720Z,2.72
2017-07-29T08:59:33.890Z,2.92
2017-07-29T09:02:01.982Z,2.42
2017-07-29T09:04:30.080Z,2.35
2017-07-29T09:06:58.210Z,3.00
2017-07-29T09:09:27.071Z,2.17
2017-07-29T09:11:55.280Z,2.05
2017-07-29T09:14:23.347Z,3.17
2017-07-29T09:16:51.418Z,2.80
2017-07-29T09:19:19.559Z,2.90
2017-07-29T09:21:53.430Z,2.35
2017-07-29T09:24:22.698Z,2.50
2017-07-29T09:26:50.798Z,2.65
2017-07-29T09:29:19.662Z,2.10
2017-07-29T09:31:47.840Z,2.37
2017-07-29T09:34:16.010Z,2.70
2017-07-29T09:36:44.182Z,2.67
2017-07-29T09:39:12.342Z,3.15
2017-07-29T09:41:41.161Z,2.28
2017-07-29T09:44:09.317Z,2.12
2017-07-29T09:46:37.901Z,1.80
2017-07-29T09:49:05.998Z,1.80
2017-07-29T09:51:34.146Z,2.10
2017-07-29T09:54:06.806Z,2.33
2017-07-29T09:56:35.002Z,1.85
2017-07-29T09:59:03.181Z,2.62
2017-07-29T10:01:31.371Z,2.62
2017-07-29T10:03:59.483Z,1.85
2017-07-29T10:06:27.560Z,2.00
2017-07-29T10:08:56.385Z,2.40
2017-07-29T10:11:24.562Z,2.42
2017-07-29T10:13:52.734Z,2.35
2017-07-29T10:16:20.823Z,2.33
2017-07-29T10:18:48.986Z,1.92
2017-07-29T10:21:17.971Z,1.92
2017-07-29T10:23:46.043Z,2.83
2017-07-29T10:26:14.222Z,1.67
2017-07-29T10:28:42.292Z,2.28
2017-07-29T10:31:12.519Z,2.03
2017-07-29T10:33:40.690Z,3.08
2017-07-29T10:36:08.807Z,2.40
2017-07-29T10:38:37.649Z,2.00
2017-07-29T10:41:06.145Z,2.15
2017-07-29T10:43:34.307Z,2.58
2017-07-29T10:46:02.478Z,2.10
2017-07-29T10:48:30.661Z,2.65
2017-07-29T10:50:58.839Z,2.00
2017-07-29T10:53:27.005Z,1.70
2017-07-29T10:55:58.830Z,2.00
2017-07-29T10:58:27.365Z,1.52
2017-07-29T11:00:55.490Z,1.73
2017-07-29T11:03:23.605Z,1.60
2017-07-29T11:05:51.778Z,1.80
2017-07-29T11:08:19.855Z,1.95
2017-07-29T11:10:48.005Z,2.17
2017-07-29T11:13:16.490Z,1.55
2017-07-29T11:15:44.572Z,1.87
2017-07-29T11:18:12.706Z,1.70
2017-07-29T11:20:40.809Z,2.12
2017-07-29T11:23:08.989Z,1.40
2017-07-29T11:25:37.162Z,1.58
2017-07-29T11:28:06.056Z,2.58
2017-07-29T11:30:34.590Z,1.73
2017-07-29T11:33:02.671Z,1.50
2017-07-29T11:35:30.894Z,1.65
2017-07-29T11:37:59.042Z,2.42
2017-07-29T11:40:27.122Z,1.45
2017-07-29T11:42:55.297Z,1.55
2017-07-29T11:45:23.890Z,1.73
2017-07-29T11:47:51.989Z,1.12
2017-07-29T11:50:20.850Z,1.48
2017-07-29T11:52:49.021Z,1.70
2017-07-29T11:55:17.102Z,1.30
2017-07-29T11:57:45.177Z,1.30
2017-07-29T12:00:14.470Z,1.02
2017-07-29T12:02:42.644Z,1.40
2017-07-29T12:05:10.815Z,1.70
2017-07-29T12:07:38.889Z,1.50
2017-07-29T12:10:07.475Z,1.80
2017-07-29T12:12:35.646Z,1.20
2017-07-29T12:15:03.823Z,1.45
2017-07-29T12:17:31.998Z,1.60
2017-07-29T12:20:00.094Z,1.30
2017-07-29T12:22:29.058Z,1.80
2017-07-29T12:24:57.140Z,1.52
2017-07-29T12:27:25.621Z,1.50
2017-07-29T12:29:53.790Z,1.42
2017-07-29T12:32:23.090Z,1.23
2017-07-29T12:34:51.270Z,1.25
2017-07-29T12:37:19.439Z,1.62
2017-07-29T12:39:47.936Z,1.27
2017-07-29T12:42:16.014Z,1.42
2017-07-29T12:44:44.175Z,1.62
2017-07-29T12:47:12.290Z,1.20
2017-07-29T12:49:40.834Z,1.92
2017-07-29T12:52:08.922Z,1.25
2017-07-29T12:54:37.501Z,1.50
2017-07-29T12:57:05.676Z,1.45
2017-07-29T12:59:33.833Z,1.65
2017-07-29T13:02:01.963Z,1.45
2017-07-29T13:04:39.981Z,1.40
2017-07-29T13:07:09.632Z,1.35
2017-07-29T13:09:37.697Z,1.30
2017-07-29T13:12:05.786Z,1.65
2017-07-29T13:14:34.666Z,1.20
2017-07-29T13:17:02.742Z,1.52
2017-07-29T13:19:31.302Z,1.40
2017-07-29T13:21:59.481Z,1.30
2017-07-29T13:24:27.581Z,1.58
2017-07-29T13:26:55.726Z,1.30
2017-07-29T13:29:23.812Z,1.75
2017-07-29T13:31:51.970Z,1.25
2017-07-29T13:34:20.149Z,1.62
2017-07-29T13:36:48.330Z,1.15
2017-07-29T13:39:16.493Z,1.42
2017-07-29T13:41:44.636Z,1.27
2017-07-29T13:44:13.864Z,1.40
2017-07-29T13:46:41.937Z,1.40
2017-07-29T13:49:10.111Z,1.40
2017-07-29T13:51:38.590Z,1.40
2017-07-29T13:54:06.779Z,2.87
2017-07-29T13:56:34.942Z,3.10
2017-07-29T13:59:03.128Z,10.07
2017-07-29T14:01:31.629Z,2.50
2017-07-29T14:04:00.478Z,3.15
2017-07-29T14:06:28.662Z,1.50
2017-07-29T14:08:57.157Z,1.98
2017-07-29T14:11:25.726Z,2.33
2017-07-29T14:13:53.853Z,2.20
2017-07-29T14:16:21.986Z,2.33
2017-07-29T14:18:51.277Z,2.92
2017-07-29T14:21:19.862Z,2.03
2017-07-29T14:23:48.046Z,2.30
2017-07-29T14:26:17.633Z,3.58
2017-07-29T14:28:45.737Z,1.00
2017-07-29T14:31:14.298Z,1.27
2017-07-29T14:33:42.484Z,1.20
2017-07-29T14:36:10.972Z,1.42
2017-07-29T14:38:39.130Z,1.27
2017-07-29T14:41:07.246Z,1.50
2017-07-29T14:43:36.070Z,1.55
2017-07-29T14:46:04.182Z,1.90
2017-07-29T14:48:35.972Z,1.25
2017-07-29T14:51:04.079Z,1.40
2017-07-29T14:53:32.267Z,1.10
2017-07-29T14:56:00.365Z,1.33
2017-07-29T14:58:29.318Z,1.60
2017-07-29T15:00:57.509Z,1.35
2017-07-29T15:03:25.650Z,1.55
2017-07-29T15:05:54.150Z,1.65
2017-07-29T15:08:24.077Z,1.50
2017-07-29T15:10:52.250Z,1.67
2017-07-29T15:13:20.763Z,1.20
2017-07-29T15:15:49.582Z,1.70
2017-07-29T15:18:17.693Z,1.58
2017-07-29T15:20:45.860Z,1.20
2017-07-29T15:23:14.058Z,1.40
2017-07-29T15:25:42.135Z,1.30
2017-07-29T15:28:10.706Z,1.45
2017-07-29T15:30:38.795Z,1.45
2017-07-29T15:33:06.954Z,1.10
2017-07-29T15:35:35.118Z,1.40
2017-07-29T15:38:03.299Z,1.20
2017-07-29T15:40:31.397Z,1.10
2017-07-29T15:42:59.485Z,1.30
2017-07-29T15:45:27.558Z,1.60
2017-07-29T15:47:56.510Z,2.10
2017-07-29T15:50:24.642Z,1.20
2017-07-29T15:52:52.751Z,1.10
2017-07-29T15:55:20.829Z,1.50
2017-07-29T15:57:49.111Z,1.62
2017-07-29T16:00:17.178Z,1.20
2017-07-29T16:02:45.347Z,1.50
2017-07-29T16:05:13.461Z,1.40
2017-07-29T16:07:42.319Z,1.52
2017-07-29T16:10:10.443Z,1.58
2017-07-29T16:12:38.557Z,2.12
2017-07-29T16:15:06.731Z,1.67
2017-07-29T16:17:34.858Z,2.10
2017-07-29T16:20:02.925Z,2.05
2017-07-29T16:22:31.007Z,1.40
2017-07-29T16:24:59.130Z,1.67
2017-07-29T16:27:28.369Z,1.58
2017-07-29T16:29:57.210Z,1.35
2017-07-29T16:32:25.697Z,1.33
2017-07-29T16:34:53.814Z,1.40
2017-07-29T16:37:21.890Z,1.40
2017-07-29T16:39:50.030Z,1.52
2017-07-29T16:42:18.898Z,1.55
2017-07-29T16:44:47.094Z,1.20
2017-07-29T16:47:15.658Z,1.77
2017-07-29T16:49:43.746Z,1.25
2017-07-29T16:52:11.814Z,1.42
2017-07-29T16:54:39.973Z,1.27
2017-07-29T16:57:08.049Z,1.65
2017-07-29T16:59:36.161Z,1.90
2017-07-29T17:02:04.992Z,1.50
2017-07-29T17:04:33.490Z,1.50
2017-07-29T17:07:01.687Z,1.20
2017-07-29T17:09:29.847Z,1.62
2017-07-29T17:11:58.019Z,1.60
2017-07-29T17:14:26.186Z,1.55
2017-07-29T17:16:54.366Z,1.70
2017-07-29T17:19:22.437Z,2.00
2017-07-29T17:21:51.014Z,1.55
2017-07-29T17:24:19.130Z,1.62
2017-07-29T17:26:47.670Z,1.50
2017-07-29T17:29:15.845Z,1.75
2017-07-29T17:31:44.030Z,1.15
2017-07-29T17:34:12.207Z,2.22
2017-07-29T17:36:40.428Z,2.00
2017-07-29T17:39:08.546Z,1.92
2017-07-29T17:41:36.733Z,1.92
2017-07-29T17:44:12.877Z,3.62
2017-07-29T17:46:40.979Z,4.80
2017-07-29T17:49:09.132Z,3.60
2017-07-29T17:51:37.218Z,2.20
2017-07-29T17:54:06.079Z,2.20
2017-07-29T17:56:34.186Z,2.22
2017-07-29T17:59:02.307Z,2.25
2017-07-29T18:01:30.422Z,4.30
2017-07-29T18:03:58.483Z,2.20
2017-07-29T18:06:26.658Z,4.70
2017-07-29T18:08:54.741Z,2.40
2017-07-29T18:11:22.910Z,3.20
2017-07-29T18:13:52.440Z,2.90
2017-07-29T18:16:33.343Z,2.12
2017-07-29T18:19:01.455Z,2.30
2017-07-29T18:21:29.542Z,2.17
2017-07-29T18:23:57.686Z,2.10
2017-07-29T18:26:25.767Z,2.65
2017-07-29T18:28:54.526Z,2.15
2017-07-29T18:31:23.354Z,1.92
2017-07-29T18:33:51.434Z,1.83
2017-07-29T18:36:20.033Z,2.00
2017-07-29T18:38:48.098Z,1.90
2017-07-29T18:41:16.180Z,1.95
2017-07-29T18:43:47.083Z,1.90
2017-07-29T18:46:15.557Z,1.80
2017-07-29T18:48:43.652Z,1.73
2017-07-29T18:51:11.749Z,2.45
2017-07-29T18:53:40.644Z,2.78
2017-07-29T18:56:09.498Z,2.75
2017-07-29T18:58:37.670Z,2.47
2017-07-29T19:01:05.846Z,2.53
2017-07-29T19:03:34.022Z,2.42
2017-07-29T19:06:02.128Z,2.80
2017-07-29T19:08:30.973Z,5.65
2017-07-29T19:10:59.167Z,3.05
2017-07-29T19:13:27.244Z,2.50
2017-07-29T19:15:55.383Z,2.55
2017-07-29T19:18:24.244Z,2.40
2017-07-29T19:20:52.361Z,2.70
2017-07-29T19:23:20.830Z,1.62
2017-07-29T19:25:48.957Z,2.53
2017-07-29T19:28:17.503Z,2.67
2017-07-29T19:30:45.678Z,2.35
2017-07-29T19:33:15.398Z,2.95
2017-07-29T19:35:43.487Z,2.85
2017-07-29T19:38:11.662Z,2.65
2017-07-29T19:40:39.850Z,3.05
2017-07-29T19:43:08.011Z,3.17
2017-07-29T19:45:36.191Z,2.22
2017-07-29T19:48:04.262Z,2.47
2017-07-29T19:50:32.422Z,2.85
2017-07-29T19:53:00.608Z,2.95
2017-07-29T19:55:28.678Z,2.62
2017-07-29T19:57:58.174Z,2.72
2017-07-29T20:00:27.167Z,3.10
2017-07-29T20:02:55.646Z,2.50
2017-07-29T20:05:23.752Z,2.90
2017-07-29T20:07:52.223Z,2.35
2017-07-29T20:10:20.690Z,2.60
2017-07-29T20:12:48.786Z,2.83
2017-07-29T20:15:16.858Z,2.60
2017-07-29T20:17:45.726Z,2.75
2017-07-29T20:20:14.231Z,3.12
2017-07-29T20:22:43.071Z,2.85
2017-07-29T20:25:11.151Z,2.85
2017-07-29T20:27:39.326Z,3.20
2017-07-29T20:30:07.374Z,2.97
2017-07-29T20:32:35.455Z,3.15
2017-07-29T20:35:04.321Z,2.80
2017-07-29T20:37:35.696Z,4.18
2017-07-29T20:40:03.802Z,2.60
2017-07-29T20:42:32.270Z,2.85
2017-07-29T20:45:00.351Z,5.05
2017-07-29T20:47:28.459Z,4.32
2017-07-29T20:49:57.294Z,3.58
2017-07-29T20:52:25.786Z,3.60
2017-07-29T20:54:53.878Z,3.50
2017-07-29T20:57:22.038Z,2.97
2017-07-29T20:59:50.206Z,2.67
2017-07-29T21:02:18.286Z,3.00
2017-07-29T21:04:46.454Z,3.08
2017-07-29T21:07:14.625Z,2.90
2017-07-29T21:09:42.806Z,3.37
2017-07-29T21:12:10.918Z,2.65
2017-07-29T21:14:40.153Z,4.28
2017-07-29T21:17:08.251Z,5.68
2017-07-29T21:19:36.417Z,4.43
2017-07-29T21:22:04.602Z,3.67
2017-07-29T21:24:32.689Z,2.50
2017-07-29T21:27:00.838Z,3.58
2017-07-29T21:29:29.017Z,3.25
2017-07-29T21:31:57.193Z,3.70
2017-07-29T21:34:25.365Z,2.83
2017-07-29T21:36:53.441Z,3.25
2017-07-29T21:39:21.614Z,2.90
2017-07-29T21:41:49.748Z,3.12
2017-07-29T21:44:17.862Z,4.45
2017-07-29T21:46:46.029Z,3.50
2017-07-29T21:49:14.902Z,3.00
2017-07-29T21:51:42.974Z,4.07
2017-07-29T21:54:11.210Z,4.35
2017-07-29T21:56:40.060Z,3.97
2017-07-29T21:59:08.239Z,3.15
2017-07-29T22:01:36.410Z,3.53
2017-07-29T22:04:04.497Z,3.00
2017-07-29T22:06:32.565Z,3.67
2017-07-29T22:09:00.747Z,3.72
2017-07-29T22:11:28.902Z,3.37
2017-07-29T22:13:57.002Z,3.50
2017-07-29T22:16:25.558Z,3.60
2017-07-29T22:18:53.734Z,3.08
2017-07-29T22:21:21.906Z,3.70
2017-07-29T22:24:00.015Z,3.30
2017-07-29T22:26:29.406Z,3.85
2017-07-29T22:28:57.589Z,3.78
2017-07-29T22:31:25.658Z,3.47
2017-07-29T22:33:53.781Z,3.40
2017-07-29T22:36:21.902Z,3.40
2017-07-29T22:38:50.379Z,3.33
2017-07-29T22:41:18.442Z,3.50
2017-07-29T22:43:46.536Z,3.53
2017-07-29T22:46:14.646Z,3.95
2017-07-29T22:48:42.722Z,3.60
2017-07-29T22:51:11.193Z,3.65
2017-07-29T22:53:40.501Z,3.47
2017-07-29T22:56:08.578Z,4.05
2017-07-29T22:58:36.680Z,3.70
2017-07-29T23:01:04.823Z,3.90
2017-07-29T23:03:33.679Z,4.22
2017-07-29T23:06:01.760Z,3.90
2017-07-29T23:08:29.836Z,4.60
2017-07-29T23:10:58.698Z,3.50
2017-07-29T23:13:26.770Z,3.67
2017-07-29T23:15:54.902Z,3.67
2017-07-29T23:18:23.378Z,3.12
2017-07-29T23:20:51.467Z,4.47
2017-07-29T23:23:19.574Z,3.55
2017-07-29T23:25:47.683Z,3.50
2017-07-29T23:28:16.518Z,4.00
2017-07-29T23:30:44.604Z,3.00
2017-07-29T23:33:13.111Z,3.60
2017-07-29T23:35:42.304Z,4.53
2017-07-29T23:38:10.786Z,3.62
2017-07-29T23:40:39.277Z,3.28
2017-07-29T23:43:08.154Z,4.37
2017-07-29T23:45:36.622Z,3.33
2017-07-29T23:48:04.709Z,3.35
2017-07-29T23:50:32.857Z,3.30
2017-07-29T23:53:00.955Z,3.37
2017-07-29T23:55:29.013Z,3.78
2017-07-29T23:57:57.881Z,3.75
